Terminal Aerodrome Forecast
Issued by NWS Huntsville, AL

Home | Current Version | Previous Version | Text Only | Print | Product List | Glossary On
Versions: 1 2 3 4 5 6 7 8 9 10 11 12 13 14 15 16 17 18 19 20 21 22 23 24 25 26 27 28 29 30 31 32
000
FTUS44 KHUN 281734
TAFHSV
TAF
KHSV 281734Z 2818/0118 16012KT P6SM -SHRA BKN010 OVC025
      TEMPO 2818/2820 2SM +RA BR BKN005
     FM282000 18012KT P6SM VCSH OVC010
     FM010900 16014KT P6SM OVC006
     FM011300 20015G25KT P6SM OVC010
     FM011600 20015G25KT 4SM +TSRA OVC010CB=

USA.gov is the U.S. government's official web portal to all federal, state and local government web resources and services.